Time;durP1;ratioP1;P1;durP2;ratioP2;P2;SDS_P1;SDS_P2;PMS_P1;PMS_P2;Temp;Humidity;BMP_temperature;BMP_pressure;BME280_temperature;BME280_humidity;BME280_pressure;Samples;Min_cycle;Max_cycle;Signal;HPM_P1;HPM_P2
2022/07/05 00:02:01;;;;;;;5.68;4.40;;;;;;;;;;5017544;28;20045;-76
2022/07/05 00:04:27;;;;;;;6.53;4.78;;;;;;;;;;5031369;28;20088;-77
2022/07/05 00:09:38;;;;;;;9.65;5.78;;;;;;;;;;5018201;28;20095;-77
2022/07/05 00:12:04;;;;;;;7.13;5.20;;;;;;;;;;5018038;28;20556;-77
2022/07/05 00:14:30;;;;;;;7.82;5.30;;;;;;;;;;5035356;28;20037;-76
2022/07/05 00:16:57;;;;;;;8.57;5.20;;;;;;;;;;5037466;28;20041;-70
2022/07/05 00:19:23;;;;;;;9.18;5.20;;;;;;;;;;5017297;28;20045;-70
2022/07/05 00:21:49;;;;;;;8.25;4.97;;;;;;;;;;5017071;28;20532;-77
2022/07/05 00:24:15;;;;;;;6.55;4.65;;;;;;;;;;5035580;28;20041;-77
2022/07/05 00:26:41;;;;;;;7.68;5.43;;;;;;;;;;5035153;28;20037;-77
2022/07/05 00:29:07;;;;;;;7.97;6.13;;;;;;;;;;5017907;28;20053;-77
2022/07/05 00:31:33;;;;;;;9.57;5.72;;;;;;;;;;5017670;28;20045;-77
2022/07/05 00:33:59;;;;;;;7.32;5.22;;;;;;;;;;5033726;28;20045;-77
2022/07/05 00:36:26;;;;;;;8.10;5.65;;;;;;;;;;5034888;28;20502;-77
2022/07/05 00:38:52;;;;;;;9.43;5.32;;;;;;;;;;5033729;28;20111;-70
2022/07/05 00:41:18;;;;;;;8.70;5.63;;;;;;;;;;5035159;28;20056;-75
2022/07/05 00:43:58;;;;;;;10.27;6.05;;;;;;;;;;5017425;28;20521;-77
2022/07/05 00:46:24;;;;;;;8.30;5.65;;;;;;;;;;5017435;28;20440;-77
2022/07/05 00:48:50;;;;;;;8.70;5.65;;;;;;;;;;5033959;28;20033;-70
2022/07/05 00:51:17;;;;;;;8.63;6.50;;;;;;;;;;5021170;28;20524;-70
2022/07/05 00:53:43;;;;;;;10.27;6.63;;;;;;;;;;5013619;28;20049;-70
2022/07/05 00:56:13;;;;;;;9.80;6.85;;;;;;;;;;5012978;28;20048;-73
2022/07/05 00:58:39;;;;;;;8.95;6.18;;;;;;;;;;5016451;28;20509;-77
2022/07/05 01:01:06;;;;;;;8.57;5.57;;;;;;;;;;5034374;28;20061;-77
2022/07/05 01:03:33;;;;;;;7.85;4.05;;;;;;;;;;5017189;28;20383;-77
2022/07/05 01:06:00;;;;;;;5.70;4.13;;;;;;;;;;5034318;28;20046;-70
2022/07/05 01:08:26;;;;;;;7.82;6.05;;;;;;;;;;5033992;28;20556;-69
2022/07/05 01:10:52;;;;;;;11.02;6.03;;;;;;;;;;5034820;28;20048;-76
2022/07/05 01:13:19;;;;;;;9.20;6.82;;;;;;;;;;5047769;28;20034;-70
2022/07/05 01:15:45;;;;;;;10.25;6.53;;;;;;;;;;5016624;28;20116;-69
2022/07/05 01:18:11;;;;;;;8.63;5.78;;;;;;;;;;4999517;28;20037;-70
2022/07/05 01:20:37;;;;;;;7.57;5.70;;;;;;;;;;5033747;28;20084;-76
2022/07/05 01:23:04;;;;;;;7.97;6.60;;;;;;;;;;5016282;28;20041;-70
2022/07/05 01:25:31;;;;;;;8.35;6.10;;;;;;;;;;5033979;28;20477;-69
2022/07/05 01:27:58;;;;;;;8.38;6.05;;;;;;;;;;5033461;28;20550;-69
2022/07/05 01:30:24;;;;;;;9.38;5.03;;;;;;;;;;5038952;28;20037;-76
2022/07/05 01:32:50;;;;;;;9.57;6.38;;;;;;;;;;5034054;28;20064;-69
2022/07/05 01:35:20;;;;;;;8.93;6.50;;;;;;;;;;5015849;28;20112;-69
2022/07/05 01:37:50;;;;;;;10.57;6.32;;;;;;;;;;5016940;28;20524;-76
2022/07/05 01:40:16;;;;;;;8.55;6.45;;;;;;;;;;5035120;28;20045;-76
2022/07/05 01:42:43;;;;;;;8.95;6.32;;;;;;;;;;5016360;28;20092;-76
2022/07/05 01:45:09;;;;;;;10.43;6.95;;;;;;;;;;5015754;28;20096;-76
2022/07/05 01:47:45;;;;;;;10.50;7.93;;;;;;;;;;5034076;28;20037;-69
2022/07/05 01:50:13;;;;;;;9.93;7.72;;;;;;;;;;5016376;28;20053;-69
2022/07/05 01:52:41;;;;;;;11.25;8.05;;;;;;;;;;5027495;28;20148;-69
2022/07/05 01:55:07;;;;;;;9.98;7.43;;;;;;;;;;5033009;28;20081;-69
2022/07/05 01:57:33;;;;;;;10.07;7.30;;;;;;;;;;5015631;28;20042;-70
2022/07/05 01:59:59;;;;;;;9.90;6.30;;;;;;;;;;4998881;28;20547;-69
2022/07/05 02:02:25;;;;;;;9.75;6.80;;;;;;;;;;5014438;28;20474;-76
2022/07/05 02:04:51;;;;;;;8.30;5.90;;;;;;;;;;5039731;28;20037;-69
2022/07/05 02:07:17;;;;;;;9.82;6.38;;;;;;;;;;5023063;28;20037;-69
2022/07/05 02:09:43;;;;;;;9.02;6.70;;;;;;;;;;5037780;28;20094;-69
2022/07/05 02:12:10;;;;;;;8.45;6.53;;;;;;;;;;5043045;28;20497;-69
2022/07/05 02:14:36;;;;;;;9.85;7.38;;;;;;;;;;5037935;28;20037;-69
2022/07/05 02:17:02;;;;;;;12.18;7.97;;;;;;;;;;5006041;28;20048;-69
2022/07/05 02:19:29;;;;;;;8.98;6.82;;;;;;;;;;5039720;28;20489;-69
2022/07/05 02:21:55;;;;;;;10.07;7.10;;;;;;;;;;5021109;28;20492;-69
2022/07/05 02:24:21;;;;;;;8.95;6.78;;;;;;;;;;4999569;28;20037;-69
2022/07/05 02:26:48;;;;;;;11.90;7.60;;;;;;;;;;5020070;28;20556;-69
2022/07/05 02:29:14;;;;;;;9.68;7.05;;;;;;;;;;5023916;28;20076;-69
2022/07/05 02:31:40;;;;;;;10.40;7.90;;;;;;;;;;5019775;28;20044;-69
2022/07/05 02:34:06;;;;;;;11.77;8.10;;;;;;;;;;5045418;28;20036;-69
2022/07/05 02:36:32;;;;;;;12.65;8.50;;;;;;;;;;5020631;28;20037;-69
2022/07/05 02:38:59;;;;;;;10.23;7.72;;;;;;;;;;5020475;28;20045;-69
2022/07/05 02:41:25;;;;;;;10.15;7.57;;;;;;;;;;5040609;28;20420;-69
2022/07/05 02:43:52;;;;;;;9.48;7.55;;;;;;;;;;5018179;28;20486;-70
2022/07/05 02:46:18;;;;;;;10.82;7.55;;;;;;;;;;5041270;28;20045;-69
2022/07/05 02:48:44;;;;;;;10.50;7.43;;;;;;;;;;5019350;28;20041;-67
2022/07/05 02:51:10;;;;;;;10.02;6.97;;;;;;;;;;5022596;28;20053;-74
2022/07/05 02:53:37;;;;;;;12.77;7.95;;;;;;;;;;5022801;28;20045;-74
2022/07/05 02:56:03;;;;;;;8.20;6.22;;;;;;;;;;5020943;28;20486;-68
2022/07/05 02:58:29;;;;;;;7.53;6.32;;;;;;;;;;5021908;28;20056;-68
2022/07/05 03:00:55;;;;;;;9.30;6.72;;;;;;;;;;5017152;28;20175;-67
2022/07/05 03:03:21;;;;;;;9.35;7.13;;;;;;;;;;4998161;28;20402;-69
2022/07/05 03:05:47;;;;;;;7.25;5.57;;;;;;;;;;5028185;28;20044;-77
2022/07/05 03:08:13;;;;;;;9.07;6.25;;;;;;;;;;4998125;28;20095;-76
2022/07/05 03:10:39;;;;;;;9.82;8.07;;;;;;;;;;5032414;28;20542;-77
2022/07/05 03:13:06;;;;;;;8.23;6.80;;;;;;;;;;4997623;28;20045;-76
2022/07/05 03:15:32;;;;;;;8.93;7.55;;;;;;;;;;5032774;28;20060;-76
2022/07/05 03:17:58;;;;;;;8.50;6.22;;;;;;;;;;5014558;28;20379;-69
2022/07/05 03:20:24;;;;;;;10.95;6.90;;;;;;;;;;5013897;28;20049;-69
2022/07/05 03:22:50;;;;;;;10.57;7.97;;;;;;;;;;5031875;28;20038;-69
2022/07/05 03:25:16;;;;;;;10.82;7.53;;;;;;;;;;5035721;28;20485;-69
2022/07/05 03:27:42;;;;;;;13.00;7.43;;;;;;;;;;5018304;28;20056;-69
2022/07/05 03:30:09;;;;;;;9.63;6.70;;;;;;;;;;5031766;28;20502;-69
2022/07/05 03:32:35;;;;;;;9.95;6.57;;;;;;;;;;5014573;28;20037;-69
2022/07/05 03:35:01;;;;;;;8.90;6.60;;;;;;;;;;5014426;28;20383;-69
2022/07/05 03:37:27;;;;;;;8.43;7.05;;;;;;;;;;5019004;28;20048;-69
2022/07/05 03:39:53;;;;;;;10.15;6.22;;;;;;;;;;5014083;28;20087;-69
2022/07/05 03:42:19;;;;;;;10.63;6.75;;;;;;;;;;4981324;28;20037;-69
2022/07/05 03:44:45;;;;;;;11.13;8.23;;;;;;;;;;5014078;28;20045;-69
2022/07/05 03:47:11;;;;;;;9.48;7.63;;;;;;;;;;5014869;28;20037;-68
2022/07/05 03:49:37;;;;;;;9.65;7.95;;;;;;;;;;4997683;28;20043;-75
2022/07/05 03:52:04;;;;;;;8.95;7.15;;;;;;;;;;5031956;28;20037;-76
2022/07/05 03:54:30;;;;;;;9.13;6.18;;;;;;;;;;5013725;28;20128;-76
2022/07/05 03:56:56;;;;;;;8.60;6.63;;;;;;;;;;5032007;28;20500;-76
2022/07/05 03:59:22;;;;;;;7.82;5.97;;;;;;;;;;5031037;28;20040;-76
2022/07/05 04:01:48;;;;;;;7.38;5.95;;;;;;;;;;5009771;28;20056;-76
2022/07/05 04:04:14;;;;;;;7.90;5.75;;;;;;;;;;5029518;28;20046;-76
2022/07/05 04:06:40;;;;;;;7.28;6.00;;;;;;;;;;5019218;28;20063;-76
2022/07/05 04:09:06;;;;;;;7.82;5.50;;;;;;;;;;5046845;28;20033;-76
2022/07/05 04:11:33;;;;;;;8.52;5.93;;;;;;;;;;5018671;28;20498;-76
2022/07/05 04:13:59;;;;;;;9.93;5.45;;;;;;;;;;5041528;28;20067;-76
2022/07/05 04:16:26;;;;;;;9.13;5.47;;;;;;;;;;5019113;28;20375;-76
2022/07/05 04:18:52;;;;;;;6.40;5.18;;;;;;;;;;5023533;28;20491;-76
2022/07/05 04:21:18;;;;;;;6.30;5.20;;;;;;;;;;5019230;28;20502;-76
2022/07/05 04:23:44;;;;;;;9.48;5.65;;;;;;;;;;5038372;28;20033;-75
2022/07/05 04:26:10;;;;;;;10.57;5.07;;;;;;;;;;5007771;28;20037;-76
2022/07/05 04:28:36;;;;;;;7.72;5.00;;;;;;;;;;5026370;28;20128;-76
2022/07/05 04:31:02;;;;;;;5.93;4.88;;;;;;;;;;5027354;28;20049;-76
2022/07/05 04:33:29;;;;;;;6.25;5.30;;;;;;;;;;5021928;28;20052;-76
2022/07/05 04:35:55;;;;;;;12.23;5.22;;;;;;;;;;5025948;28;20091;-76
2022/07/05 04:38:21;;;;;;;8.27;5.20;;;;;;;;;;5039466;28;20498;-76
2022/07/05 04:40:47;;;;;;;7.75;4.60;;;;;;;;;;5049138;28;20076;-76
2022/07/05 04:43:13;;;;;;;6.05;4.57;;;;;;;;;;5024185;28;20037;-75
2022/07/05 04:45:39;;;;;;;5.93;4.35;;;;;;;;;;5022593;28;20091;-76
2022/07/05 04:48:05;;;;;;;5.22;4.00;;;;;;;;;;5026377;28;20036;-76
2022/07/05 04:50:31;;;;;;;4.72;3.80;;;;;;;;;;5038149;28;20037;-76
2022/07/05 04:52:57;;;;;;;4.28;3.65;;;;;;;;;;5038665;28;20041;-76
2022/07/05 04:55:24;;;;;;;8.65;4.70;;;;;;;;;;5021291;28;20116;-76
2022/07/05 04:57:50;;;;;;;5.45;3.17;;;;;;;;;;5042671;28;20048;-76
2022/07/05 05:00:16;;;;;;;5.53;3.55;;;;;;;;;;5046300;28;20516;-76
2022/07/05 05:02:42;;;;;;;5.97;3.30;;;;;;;;;;5033241;28;20045;-76
2022/07/05 05:05:08;;;;;;;7.03;3.33;;;;;;;;;;5033835;28;20037;-76
2022/07/05 05:07:37;;;;;;;4.70;3.10;;;;;;;;;;5009769;28;20116;-76
2022/07/05 05:10:03;;;;;;;6.10;3.05;;;;;;;;;;5041635;28;20049;-75
2022/07/05 05:12:29;;;;;;;6.57;3.03;;;;;;;;;;5030651;28;20045;-75
2022/07/05 05:14:55;;;;;;;3.92;3.20;;;;;;;;;;5014780;28;20049;-76
2022/07/05 05:17:21;;;;;;;4.15;2.60;;;;;;;;;;5014505;28;20045;-76
2022/07/05 05:19:47;;;;;;;3.38;2.45;;;;;;;;;;4999429;28;20049;-76
2022/07/05 05:22:13;;;;;;;5.57;2.42;;;;;;;;;;5007532;28;20518;-76
2022/07/05 05:24:40;;;;;;;6.20;2.30;;;;;;;;;;5014545;28;20041;-77
2022/07/05 05:27:06;;;;;;;5.07;2.30;;;;;;;;;;5014914;28;20045;-76
2022/07/05 05:29:32;;;;;;;3.78;2.33;;;;;;;;;;5000071;28;20057;-76
2022/07/05 05:31:59;;;;;;;3.85;2.20;;;;;;;;;;5016376;28;20505;-76
2022/07/05 05:34:25;;;;;;;3.92;1.95;;;;;;;;;;5010696;28;20064;-76
2022/07/05 05:36:51;;;;;;;4.05;2.42;;;;;;;;;;5015361;28;20042;-76
2022/07/05 05:39:17;;;;;;;5.82;2.30;;;;;;;;;;5000515;28;20048;-76
2022/07/05 05:41:43;;;;;;;4.70;2.35;;;;;;;;;;5033807;28;20557;-76
2022/07/05 05:44:09;;;;;;;4.60;2.08;;;;;;;;;;5016004;28;20498;-76
2022/07/05 05:46:35;;;;;;;5.10;1.88;;;;;;;;;;5016141;28;20045;-74
2022/07/05 05:49:01;;;;;;;5.22;2.22;;;;;;;;;;5015411;28;20041;-75
2022/07/05 05:51:27;;;;;;;6.50;2.30;;;;;;;;;;5025731;28;20375;-75
2022/07/05 05:53:54;;;;;;;5.50;2.10;;;;;;;;;;5015784;28;20048;-75
2022/07/05 05:56:20;;;;;;;4.57;2.10;;;;;;;;;;5015404;28;20043;-75
2022/07/05 05:58:46;;;;;;;5.80;2.00;;;;;;;;;;5031404;28;20045;-75
2022/07/05 06:01:12;;;;;;;4.22;2.00;;;;;;;;;;5022248;28;20125;-73
2022/07/05 06:03:38;;;;;;;4.20;1.73;;;;;;;;;;4998740;28;20052;-74
2022/07/05 06:06:04;;;;;;;3.67;1.80;;;;;;;;;;5015301;28;20490;-82
2022/07/05 06:08:30;;;;;;;4.63;1.92;;;;;;;;;;5015571;28;20042;-85
2022/07/05 06:10:56;;;;;;;2.90;1.80;;;;;;;;;;5016045;28;20044;-76
2022/07/05 06:13:22;;;;;;;4.63;1.60;;;;;;;;;;5015137;28;20102;-74
2022/07/05 06:15:48;;;;;;;3.05;1.50;;;;;;;;;;5014691;28;20049;-75
2022/07/05 06:18:14;;;;;;;4.75;1.30;;;;;;;;;;4998092;28;20048;-74
2022/07/05 06:20:41;;;;;;;4.03;1.40;;;;;;;;;;5032029;28;20050;-74
2022/07/05 06:23:07;;;;;;;4.45;1.38;;;;;;;;;;5015081;28;20044;-74
2022/07/05 06:25:33;;;;;;;4.38;1.05;;;;;;;;;;5015279;28;20104;-76
2022/07/05 06:28:04;;;;;;;5.85;1.10;;;;;;;;;;4998633;28;20112;-73
2022/07/05 06:30:31;;;;;;;3.60;1.00;;;;;;;;;;5014545;28;20045;-74
2022/07/05 06:32:58;;;;;;;6.38;1.17;;;;;;;;;;5021204;28;20042;-74
2022/07/05 06:35:24;;;;;;;3.78;1.00;;;;;;;;;;5028296;28;20045;-75
2022/07/05 06:37:54;;;;;;;2.63;0.85;;;;;;;;;;5018995;28;20047;-74
2022/07/05 06:40:31;;;;;;;4.40;1.00;;;;;;;;;;5014840;28;20566;-74
2022/07/05 06:42:58;;;;;;;3.00;0.90;;;;;;;;;;5019162;28;20049;-74
2022/07/05 06:45:24;;;;;;;3.47;0.93;;;;;;;;;;5032056;28;20029;-74
2022/07/05 06:48:01;;;;;;;3.50;0.80;;;;;;;;;;5014123;28;20045;-74
2022/07/05 06:50:31;;;;;;;3.95;0.88;;;;;;;;;;5018633;28;20167;-74
2022/07/05 06:52:57;;;;;;;6.18;0.85;;;;;;;;;;5014874;28;20045;-74
2022/07/05 06:55:24;;;;;;;4.90;0.73;;;;;;;;;;5014478;28;20068;-74
2022/07/05 06:57:56;;;;;;;4.03;0.80;;;;;;;;;;5014527;28;20048;-76
2022/07/05 07:00:22;;;;;;;5.32;0.85;;;;;;;;;;5013870;28;20132;-74
2022/07/05 07:02:48;;;;;;;4.85;1.48;;;;;;;;;;5014233;28;20504;-75
2022/07/05 07:05:14;;;;;;;4.10;0.70;;;;;;;;;;5014075;28;20076;-75
2022/07/05 07:10:25;;;;;;;5.07;0.80;;;;;;;;;;5014438;28;20049;-73
2022/07/05 07:12:51;;;;;;;3.70;0.70;;;;;;;;;;4997610;28;20083;-73
2022/07/05 07:15:17;;;;;;;3.25;1.00;;;;;;;;;;4996128;28;20037;-75
2022/07/05 07:17:43;;;;;;;3.35;0.77;;;;;;;;;;4997404;28;20048;-75
2022/07/05 07:20:09;;;;;;;4.18;0.90;;;;;;;;;;5013801;28;20053;-73
2022/07/05 07:22:36;;;;;;;3.53;0.90;;;;;;;;;;4996044;28;20046;-75
2022/07/05 07:25:02;;;;;;;1.65;0.60;;;;;;;;;;5014225;28;20042;-74
2022/07/05 07:27:30;;;;;;;2.78;0.70;;;;;;;;;;4997867;28;20085;-76
2022/07/05 07:29:56;;;;;;;3.97;1.00;;;;;;;;;;5002182;28;20502;-73
2022/07/05 07:32:22;;;;;;;3.08;0.73;;;;;;;;;;5014164;28;20402;-75
2022/07/05 07:34:48;;;;;;;2.63;0.80;;;;;;;;;;5013749;28;20056;-76
2022/07/05 07:37:14;;;;;;;2.85;0.80;;;;;;;;;;5014483;28;20415;-76
2022/07/05 07:39:41;;;;;;;3.78;0.80;;;;;;;;;;5012929;28;20525;-76
2022/07/05 07:42:07;;;;;;;3.47;0.70;;;;;;;;;;5013800;28;20059;-76
2022/07/05 07:44:33;;;;;;;3.95;0.90;;;;;;;;;;5013584;28;20046;-75
2022/07/05 07:46:59;;;;;;;4.30;0.85;;;;;;;;;;5013622;28;20117;-75
2022/07/05 07:49:26;;;;;;;2.45;0.75;;;;;;;;;;5012714;28;20049;-73
2022/07/05 07:51:52;;;;;;;2.90;0.85;;;;;;;;;;5030474;28;20045;-76
2022/07/05 07:54:18;;;;;;;5.20;0.70;;;;;;;;;;5013669;28;20053;-76
2022/07/05 07:56:44;;;;;;;2.65;0.70;;;;;;;;;;5013023;28;20054;-76
2022/07/05 07:59:11;;;;;;;2.75;0.70;;;;;;;;;;4996923;28;20087;-77
2022/07/05 08:01:37;;;;;;;2.78;0.65;;;;;;;;;;5016679;28;20049;-75
2022/07/05 08:04:04;;;;;;;6.03;0.80;;;;;;;;;;4986422;28;20445;-72
2022/07/05 08:06:30;;;;;;;5.03;0.80;;;;;;;;;;5021064;28;20073;-74
2022/07/05 08:08:56;;;;;;;4.28;0.80;;;;;;;;;;5016320;28;20041;-73
2022/07/05 08:11:23;;;;;;;3.63;0.70;;;;;;;;;;5047481;28;20042;-75
2022/07/05 08:13:49;;;;;;;2.45;0.68;;;;;;;;;;5016878;28;20080;-74
2022/07/05 08:16:15;;;;;;;4.22;0.82;;;;;;;;;;5030650;28;20033;-74
2022/07/05 08:21:32;;;;;;;2.90;0.60;;;;;;;;;;5021533;28;20045;-74
2022/07/05 08:24:05;;;;;;;4.80;0.80;;;;;;;;;;5034252;28;20041;-76
2022/07/05 08:26:32;;;;;;;4.18;0.70;;;;;;;;;;5014992;28;20509;-73
2022/07/05 08:28:59;;;;;;;3.90;0.77;;;;;;;;;;5012600;28;20414;-75
2022/07/05 08:31:25;;;;;;;6.43;1.08;;;;;;;;;;5017422;28;20077;-75
2022/07/05 08:33:52;;;;;;;4.70;0.90;;;;;;;;;;5017006;28;20506;-77
2022/07/05 08:36:18;;;;;;;3.15;0.85;;;;;;;;;;5031286;28;20417;-76
2022/07/05 08:38:44;;;;;;;4.25;0.90;;;;;;;;;;5027421;28;20041;-80
2022/07/05 08:41:10;;;;;;;3.90;0.80;;;;;;;;;;5022014;28;20045;-80
2022/07/05 08:43:45;;;;;;;5.75;0.80;;;;;;;;;;5017189;28;20087;-80
2022/07/05 08:46:11;;;;;;;3.45;0.77;;;;;;;;;;5035462;28;20104;-80
2022/07/05 08:48:44;;;;;;;2.47;0.70;;;;;;;;;;5038718;28;20498;-80
2022/07/05 08:51:16;;;;;;;3.97;1.02;;;;;;;;;;5023419;28;20041;-81
2022/07/05 08:53:42;;;;;;;3.38;0.90;;;;;;;;;;5021218;28;20077;-80
2022/07/05 08:56:09;;;;;;;2.92;0.80;;;;;;;;;;5024204;28;20045;-78
2022/07/05 08:58:36;;;;;;;2.90;0.73;;;;;;;;;;5039833;28;20120;-74
2022/07/05 09:01:02;;;;;;;5.20;1.00;;;;;;;;;;5016500;28;20389;-73
2022/07/05 09:03:33;;;;;;;3.92;0.80;;;;;;;;;;5034615;28;20040;-73
2022/07/05 09:06:01;;;;;;;3.75;0.80;;;;;;;;;;5033775;28;20421;-72
2022/07/05 09:08:32;;;;;;;4.55;0.80;;;;;;;;;;5017504;28;20037;-74
2022/07/05 09:10:58;;;;;;;3.47;0.80;;;;;;;;;;5032120;28;20041;-76
2022/07/05 09:13:24;;;;;;;3.95;0.93;;;;;;;;;;5026962;28;20037;-74
2022/07/05 09:15:51;;;;;;;3.65;0.80;;;;;;;;;;5016908;28;20094;-73
2022/07/05 09:18:37;;;;;;;6.68;1.33;;;;;;;;;;5008665;28;20129;-75
2022/07/05 09:21:22;;;;;;;3.08;0.80;;;;;;;;;;5010348;28;20149;-74
2022/07/05 09:23:57;;;;;;;6.85;1.00;;;;;;;;;;5013072;28;20041;-74
2022/07/05 09:26:32;;;;;;;2.30;0.88;;;;;;;;;;5019570;28;20177;-74
2022/07/05 09:28:58;;;;;;;3.47;0.90;;;;;;;;;;5017491;28;20049;-74
2022/07/05 09:31:28;;;;;;;4.95;1.08;;;;;;;;;;5015016;28;20077;-76
2022/07/05 09:33:54;;;;;;;4.38;1.05;;;;;;;;;;5016304;28;20533;-76
2022/07/05 09:36:20;;;;;;;4.53;1.30;;;;;;;;;;5034270;28;20033;-75
2022/07/05 09:38:51;;;;;;;3.95;0.90;;;;;;;;;;5015396;28;20042;-76
2022/07/05 09:41:17;;;;;;;4.60;1.08;;;;;;;;;;5025839;28;20510;-72
2022/07/05 09:43:44;;;;;;;8.35;1.20;;;;;;;;;;4999637;28;20060;-76
2022/07/05 09:46:12;;;;;;;5.13;1.00;;;;;;;;;;5021781;28;20041;-73
2022/07/05 09:48:51;;;;;;;5.43;1.08;;;;;;;;;;5007014;28;20075;-73
2022/07/05 09:51:17;;;;;;;7.47;1.02;;;;;;;;;;5021236;28;20065;-74
2022/07/05 09:53:46;;;;;;;2.80;0.90;;;;;;;;;;5029655;28;20059;-73
2022/07/05 09:56:13;;;;;;;4.10;1.15;;;;;;;;;;5026878;28;20079;-72
2022/07/05 09:58:40;;;;;;;4.00;0.98;;;;;;;;;;5023348;28;20117;-74
2022/07/05 10:01:26;;;;;;;3.13;1.33;;;;;;;;;;5014151;28;20081;-73
2022/07/05 10:03:53;;;;;;;4.85;1.10;;;;;;;;;;5035204;28;20524;-71
2022/07/05 10:06:20;;;;;;;4.95;1.00;;;;;;;;;;5031944;28;20087;-72
2022/07/05 10:08:47;;;;;;;3.00;0.93;;;;;;;;;;5001857;28;20038;-77
2022/07/05 10:11:14;;;;;;;3.78;1.05;;;;;;;;;;5018884;28;20038;-74
2022/07/05 10:13:40;;;;;;;4.47;1.02;;;;;;;;;;5017242;28;20041;-77
2022/07/05 10:16:06;;;;;;;3.08;1.00;;;;;;;;;;5018140;28;20123;-77
2022/07/05 10:18:33;;;;;;;3.65;0.73;;;;;;;;;;5017613;28;20056;-77
2022/07/05 10:21:00;;;;;;;6.70;1.30;;;;;;;;;;5019219;28;20041;-78
2022/07/05 10:23:26;;;;;;;3.55;1.02;;;;;;;;;;5017415;28;20121;-72
2022/07/05 10:25:52;;;;;;;3.47;0.90;;;;;;;;;;5018027;28;20394;-73
2022/07/05 10:28:22;;;;;;;4.78;1.05;;;;;;;;;;5005782;28;20487;-71
2022/07/05 10:30:52;;;;;;;3.92;0.90;;;;;;;;;;4996012;28;20498;-72
2022/07/05 10:33:21;;;;;;;3.92;1.02;;;;;;;;;;5010375;28;20048;-74
2022/07/05 10:35:47;;;;;;;4.57;0.70;;;;;;;;;;4996085;28;20141;-73
2022/07/05 10:38:14;;;;;;;2.88;0.90;;;;;;;;;;4979336;28;20046;-73
2022/07/05 10:40:46;;;;;;;2.03;0.70;;;;;;;;;;4997658;28;20128;-71
2022/07/05 10:43:14;;;;;;;5.45;1.25;;;;;;;;;;4995122;28;20113;-74
2022/07/05 10:45:41;;;;;;;3.85;1.10;;;;;;;;;;4994229;28;20034;-70
2022/07/05 10:48:10;;;;;;;3.45;1.30;;;;;;;;;;4995168;28;20034;-70
2022/07/05 10:51:06;;;;;;;4.45;0.80;;;;;;;;;;4998742;28;20102;-76
2022/07/05 10:53:38;;;;;;;4.10;0.93;;;;;;;;;;5001215;28;20443;-73
2022/07/05 10:56:04;;;;;;;3.15;1.00;;;;;;;;;;4994936;28;20526;-71
2022/07/05 10:58:31;;;;;;;2.42;0.80;;;;;;;;;;5001401;28;20042;-74
2022/07/05 11:01:12;;;;;;;2.55;0.70;;;;;;;;;;5000607;28;20048;-74
2022/07/05 11:03:46;;;;;;;2.08;0.70;;;;;;;;;;4998783;28;20510;-74
2022/07/05 11:06:25;;;;;;;3.47;0.70;;;;;;;;;;5004380;28;20042;-73
2022/07/05 11:09:02;;;;;;;3.88;0.70;;;;;;;;;;4994510;28;20038;-74
2022/07/05 11:11:28;;;;;;;1.70;0.65;;;;;;;;;;4995201;28;20053;-72
2022/07/05 11:13:55;;;;;;;1.63;0.70;;;;;;;;;;4995252;28;20052;-72
2022/07/05 11:16:22;;;;;;;1.95;0.60;;;;;;;;;;4994358;28;20042;-74
2022/07/05 11:18:50;;;;;;;3.10;0.90;;;;;;;;;;4978729;28;20052;-72
2022/07/05 11:21:18;;;;;;;3.63;0.73;;;;;;;;;;4981957;28;20494;-72
2022/07/05 11:23:44;;;;;;;1.70;0.60;;;;;;;;;;5021546;28;20478;-72
2022/07/05 11:26:12;;;;;;;6.00;0.95;;;;;;;;;;5010898;28;20038;-73
2022/07/05 11:28:47;;;;;;;3.08;0.95;;;;;;;;;;5009889;28;20144;-75
2022/07/05 11:31:33;;;;;;;3.38;0.70;;;;;;;;;;5013281;28;20051;-74
2022/07/05 11:34:13;;;;;;;2.47;0.75;;;;;;;;;;5025401;28;20055;-74
2022/07/05 11:36:39;;;;;;;4.07;0.60;;;;;;;;;;5045695;28;20129;-76
2022/07/05 11:39:09;;;;;;;2.65;0.70;;;;;;;;;;5016723;28;20417;-73
2022/07/05 11:41:38;;;;;;;1.70;0.70;;;;;;;;;;5017819;28;20045;-74
2022/07/05 11:44:07;;;;;;;3.03;0.70;;;;;;;;;;5018112;28;20037;-73
2022/07/05 11:46:33;;;;;;;2.53;0.90;;;;;;;;;;5017374;28;20121;-70
2022/07/05 11:49:01;;;;;;;2.55;0.70;;;;;;;;;;5035490;28;20057;-74
2022/07/05 11:51:27;;;;;;;4.05;0.80;;;;;;;;;;5021232;28;20049;-72
2022/07/05 11:53:53;;;;;;;1.55;0.60;;;;;;;;;;5017979;28;20045;-73
2022/07/05 11:56:19;;;;;;;5.80;0.90;;;;;;;;;;5035447;28;20038;-76
2022/07/05 11:58:45;;;;;;;2.33;0.60;;;;;;;;;;5017261;28;20120;-76
2022/07/05 12:01:11;;;;;;;3.40;0.95;;;;;;;;;;4999838;28;20045;-73
2022/07/05 12:03:39;;;;;;;3.47;1.10;;;;;;;;;;4985146;28;20124;-73
2022/07/05 12:06:17;;;;;;;3.85;0.80;;;;;;;;;;5020466;28;20048;-74
2022/07/05 12:08:43;;;;;;;2.70;0.70;;;;;;;;;;5017226;28;20041;-75
2022/07/05 12:13:58;;;;;;;3.35;0.75;;;;;;;;;;5017351;28;20080;-75
2022/07/05 12:16:25;;;;;;;2.75;0.85;;;;;;;;;;5015981;28;20068;-75
2022/07/05 12:18:52;;;;;;;2.38;0.70;;;;;;;;;;5035824;28;20099;-76
2022/07/05 12:21:20;;;;;;;3.78;0.73;;;;;;;;;;5016006;28;20041;-73
2022/07/05 12:23:46;;;;;;;1.95;0.70;;;;;;;;;;5017601;28;20037;-72
2022/07/05 12:26:13;;;;;;;4.70;0.80;;;;;;;;;;5015060;28;20080;-75
2022/07/05 12:28:39;;;;;;;2.85;0.73;;;;;;;;;;5007214;28;20050;-75
2022/07/05 12:31:20;;;;;;;2.55;0.70;;;;;;;;;;4997032;28;20096;-72
2022/07/05 12:33:47;;;;;;;2.25;0.68;;;;;;;;;;4990119;28;20053;-76
2022/07/05 12:36:17;;;;;;;1.70;0.70;;;;;;;;;;4977254;28;20061;-73
2022/07/05 12:38:44;;;;;;;2.22;0.75;;;;;;;;;;4997914;28;20071;-73
2022/07/05 12:41:10;;;;;;;2.15;0.57;;;;;;;;;;4980841;28;20382;-71
2022/07/05 12:43:55;;;;;;;3.17;0.70;;;;;;;;;;5016766;28;20091;-72
2022/07/05 12:46:36;;;;;;;2.20;0.70;;;;;;;;;;5016101;28;20083;-74
2022/07/05 12:49:02;;;;;;;2.10;0.70;;;;;;;;;;5016998;28;20053;-74
2022/07/05 12:51:36;;;;;;;2.92;0.80;;;;;;;;;;5034412;28;20111;-71
2022/07/05 12:59:40;;;;;;;2.65;0.90;;;;;;;;;;5016437;28;20057;-71
2022/07/05 13:02:06;;;;;;;2.15;0.65;;;;;;;;;;5033072;28;20132;-74
2022/07/05 13:04:33;;;;;;;2.28;0.63;;;;;;;;;;5016113;28;20536;-73
2022/07/05 13:07:03;;;;;;;1.52;0.57;;;;;;;;;;5016589;28;20041;-72
2022/07/05 13:09:32;;;;;;;1.65;0.70;;;;;;;;;;5016204;28;20044;-73
2022/07/05 13:12:07;;;;;;;2.92;0.80;;;;;;;;;;4999985;28;20046;-73
2022/07/05 13:14:33;;;;;;;2.35;0.70;;;;;;;;;;5014662;28;20406;-72
2022/07/05 13:17:00;;;;;;;1.52;0.70;;;;;;;;;;5032920;28;20099;-76
2022/07/05 13:19:26;;;;;;;3.35;0.80;;;;;;;;;;5015936;28;20053;-76
2022/07/05 13:21:52;;;;;;;2.15;0.93;;;;;;;;;;5016277;28;20102;-75
2022/07/05 13:24:18;;;;;;;2.45;0.70;;;;;;;;;;5031872;28;20030;-75
2022/07/05 13:26:44;;;;;;;2.92;0.70;;;;;;;;;;5023297;28;20037;-74
2022/07/05 13:29:10;;;;;;;2.33;0.60;;;;;;;;;;5030328;28;20107;-76
2022/07/05 13:31:36;;;;;;;2.10;0.60;;;;;;;;;;5031134;28;20083;-76
2022/07/05 13:34:03;;;;;;;1.80;0.70;;;;;;;;;;5051331;28;20045;-74
2022/07/05 13:36:29;;;;;;;2.38;0.55;;;;;;;;;;5030139;28;20048;-72
2022/07/05 13:38:55;;;;;;;2.00;0.63;;;;;;;;;;5051244;28;20067;-74
2022/07/05 13:41:22;;;;;;;3.05;0.77;;;;;;;;;;5032006;28;20462;-71
2022/07/05 13:43:48;;;;;;;1.05;0.50;;;;;;;;;;5050448;28;20489;-71
2022/07/05 13:46:14;;;;;;;1.10;0.57;;;;;;;;;;5032703;28;20063;-72
2022/07/05 13:48:40;;;;;;;1.23;0.50;;;;;;;;;;5014404;28;20041;-75
2022/07/05 13:51:07;;;;;;;2.13;0.70;;;;;;;;;;5033036;28;20378;-74
2022/07/05 13:53:33;;;;;;;2.83;0.73;;;;;;;;;;5030190;28;20049;-74
2022/07/05 13:55:59;;;;;;;4.72;0.70;;;;;;;;;;5032249;28;20048;-74
2022/07/05 13:58:25;;;;;;;2.10;0.63;;;;;;;;;;5025949;28;20069;-75
2022/07/05 14:00:52;;;;;;;2.20;0.70;;;;;;;;;;5000049;28;20410;-72
2022/07/05 14:03:18;;;;;;;2.47;0.70;;;;;;;;;;5018631;28;20124;-72
2022/07/05 14:05:44;;;;;;;2.40;0.70;;;;;;;;;;5011204;28;20569;-73
2022/07/05 14:08:11;;;;;;;1.73;0.70;;;;;;;;;;5025226;28;20123;-72
2022/07/05 14:10:38;;;;;;;1.90;0.55;;;;;;;;;;5023246;28;20053;-75
2022/07/05 14:13:04;;;;;;;2.72;0.77;;;;;;;;;;5021339;28;20052;-72
2022/07/05 14:15:30;;;;;;;2.40;0.90;;;;;;;;;;5032612;28;20040;-71
2022/07/05 14:17:56;;;;;;;1.35;0.70;;;;;;;;;;5022099;28;20049;-72
2022/07/05 14:20:22;;;;;;;3.20;0.80;;;;;;;;;;5007809;28;20041;-74
2022/07/05 14:22:48;;;;;;;2.10;0.95;;;;;;;;;;5005647;28;20549;-75
2022/07/05 14:25:14;;;;;;;2.35;0.88;;;;;;;;;;5017845;28;20375;-73
2022/07/05 14:27:42;;;;;;;2.38;0.80;;;;;;;;;;5019553;28;20061;-74
2022/07/05 14:30:10;;;;;;;3.05;0.80;;;;;;;;;;5022770;28;20077;-74
2022/07/05 14:32:36;;;;;;;2.60;0.90;;;;;;;;;;5033263;28;20037;-74
2022/07/05 14:35:02;;;;;;;6.00;1.00;;;;;;;;;;5026484;28;20379;-72
2022/07/05 14:37:28;;;;;;;2.47;0.90;;;;;;;;;;5025905;28;20033;-74
2022/07/05 14:39:54;;;;;;;3.42;1.20;;;;;;;;;;5006980;28;20121;-71
2022/07/05 14:42:20;;;;;;;3.75;0.98;;;;;;;;;;5023303;28;20041;-73
2022/07/05 14:44:46;;;;;;;3.53;1.00;;;;;;;;;;5024977;28;20079;-74
2022/07/05 14:47:13;;;;;;;3.65;1.08;;;;;;;;;;5021910;28;20046;-72
2022/07/05 14:49:39;;;;;;;4.20;1.10;;;;;;;;;;5020356;28;20041;-73
2022/07/05 14:52:05;;;;;;;3.80;0.95;;;;;;;;;;5034315;28;20047;-74
2022/07/05 14:54:31;;;;;;;2.95;0.88;;;;;;;;;;5004693;28;20037;-75
2022/07/05 14:56:57;;;;;;;4.25;1.10;;;;;;;;;;5014454;28;20034;-74
2022/07/05 14:59:23;;;;;;;5.43;1.30;;;;;;;;;;5020086;28;20041;-74
2022/07/05 15:01:49;;;;;;;2.97;0.98;;;;;;;;;;5002184;28;20044;-74